Mesa.AZweather.com - Mesa, AZ
   Red Mountain Frwy and University Dr., El 1518 ft.
       --- Monday  April 1, 2024 ---
 
 High Temperature ..  63F at 15:02
 Low Temperature ...  47F at 03:41
 
 High Humidity .....  92% at 07:49
 Low Humidity ......  57% at 17:10
 
 High Barometer ....  30.06 at 22:40
 Low Barometer .....  29.79 at 02:44
 
 High Dew Point ....  53F at 11:24
 Low Dew Point .....  40F at 03:41
 
 Rainfall Total ....  0.36 in.
 
 High Wind Speed ...  ---
                     
 
 Time   Temp  Humi  Rain     Baro  DewPt  Wind
00:00,  52F, 79%, 0.00 in, 29.80, 46F, ---
00:30,  53F, 79%, 0.00 in, 29.82, 47F, ---
01:00,  53F, 79%, 0.00 in, 29.82, 47F, ---
01:30,  52F, 79%, 0.00 in, 29.82, 46F, ---
02:00,  52F, 80%, 0.00 in, 29.81, 46F, ---
02:30,  52F, 81%, 0.03 in, 29.80, 46F, ---
03:00,  51F, 83%, 0.03 in, 29.80, 47F, ---
03:30,  50F, 80%, 0.04 in, 29.83, 44F, ---
04:00,  47F, 81%, 0.12 in, 29.83, 41F, ---
04:30,  47F, 83%, 0.18 in, 29.84, 42F, ---
05:00,  47F, 84%, 0.18 in, 29.84, 42F, ---
05:30,  47F, 86%, 0.18 in, 29.84, 42F, ---
06:00,  47F, 86%, 0.18 in, 29.85, 42F, ---
06:30,  47F, 87%, 0.18 in, 29.85, 43F, ---
07:00,  47F, 87%, 0.18 in, 29.87, 43F, ---
07:30,  48F, 87%, 0.18 in, 29.87, 45F, ---
08:00,  50F, 92%, 0.18 in, 29.89, 48F, ---
08:30,  51F, 92%, 0.18 in, 29.90, 50F, ---
09:00,  53F, 91%, 0.18 in, 29.90, 51F, ---
09:30,  53F, 86%, 0.18 in, 29.91, 50F, ---
10:00,  53F, 82%, 0.19 in, 29.93, 48F, ---
10:30,  52F, 83%, 0.26 in, 29.93, 47F, ---
11:00,  54F, 85%, 0.28 in, 29.94, 49F, ---
11:30,  57F, 84%, 0.28 in, 29.93, 52F, ---
12:00,  57F, 79%, 0.33 in, 29.94, 51F, ---
12:30,  55F, 78%, 0.36 in, 29.94, 49F, ---
13:00,  58F, 82%, 0.36 in, 29.93, 52F, ---
13:30,  58F, 74%, 0.36 in, 29.93, 49F, ---
14:00,  58F, 73%, 0.36 in, 29.93, 49F, ---
14:30,  61F, 68%, 0.36 in, 29.93, 50F, ---
15:00,  62F, 63%, 0.36 in, 29.92, 50F, ---
15:30,  61F, 58%, 0.36 in, 29.91, 46F, ---
16:00,  58F, 62%, 0.36 in, 29.92, 44F, ---
16:30,  59F, 62%, 0.36 in, 29.92, 46F, ---
17:00,  60F, 58%, 0.36 in, 29.92, 46F, ---
17:30,  59F, 59%, 0.36 in, 29.94, 45F, ---
18:00,  59F, 61%, 0.36 in, 29.95, 46F, ---
18:30,  58F, 58%, 0.36 in, 29.95, 43F, ---
19:00,  58F, 61%, 0.36 in, 29.97, 44F, ---
19:30,  56F, 65%, 0.36 in, 29.98, 44F, ---
20:00,  56F, 70%, 0.36 in, 29.99, 46F, ---
20:30,  54F, 72%, 0.36 in, 30.01, 45F, ---
21:00,  53F, 74%, 0.36 in, 30.02, 46F, ---
21:30,  52F, 76%, 0.36 in, 30.04, 44F, ---
22:00,  51F, 77%, 0.36 in, 30.04, 45F, ---
22:30,  50F, 79%, 0.36 in, 30.05, 44F, ---
23:00,  49F, 80%, 0.36 in, 30.05, 42F, ---
23:30,  48F, 80%, 0.36 in, 30.06, 42F, ---
23:59,  47F, 80%, 0.36 in, 30.05, 41F, ---